This is the latest recevied weather packets stored in our database for station/object S53BL-10. If no packets are shown the sender has not sent any weather packets the latest 10 day(s).
| Time | Temp. | Humidity | Pressure | Rain* | Wind** | Luminosity | Snow |
|---|---|---|---|---|---|---|---|
| 1777881088 | 17.78° C | 45% | 1015.1 hPa | - | - | - | - |
| 1777880187 | 19.44° C | 45% | 1015.2 hPa | - | - | - | - |
| 1777879286 | 17.22° C | 49% | 1015.2 hPa | - | - | - | - |
| 1777878385 | 15.56° C | 55% | 1015.1 hPa | - | - | - | - |
| 1777877485 | 13.89° C | 60% | 1015.2 hPa | - | - | - | - |
| 1777876584 | 12.22° C | 64% | 1015.2 hPa | - | - | - | - |
| 1777875683 | 11.11° C | 66% | 1015.2 hPa | - | - | - | - |
| 1777874782 | 10° C | 70% | 1015.2 hPa | - | - | - | - |
| 1777873881 | 9.44° C | 76% | 1015.3 hPa | - | - | - | - |
| 1777872980 | 8.89° C | 81% | 1015.2 hPa | - | - | - | - |
| 1777872079 | 8.89° C | 82% | 1015.1 hPa | - | - | - | - |
| 1777871178 | 9.44° C | 79% | 1015 hPa | - | - | - | - |
| 1777870277 | 8.89° C | 77% | 1015 hPa | - | - | - | - |
| 1777869376 | 8.89° C | 78% | 1014.9 hPa | - | - | - | - |
| 1777868476 | 8.89° C | 80% | 1014.9 hPa | - | - | - | - |
| 1777867575 | 8.89° C | 78% | 1014.7 hPa | - | - | - | - |
| 1777866674 | 8.89° C | 76% | 1014.8 hPa | - | - | - | - |
| 1777865773 | 8.89° C | 76% | 1014.8 hPa | - | - | - | - |
| 1777864873 | 9.44° C | 76% | 1014.8 hPa | - | - | - | - |
| 1777863972 | 9.44° C | 75% | 1014.7 hPa | - | - | - | - |
| 1777863071 | 9.44° C | 75% | 1014.7 hPa | - | - | - | - |
| 1777862170 | 9.44° C | 76% | 1014.8 hPa | - | - | - | - |
| 1777861269 | 9.44° C | 74% | 1014.9 hPa | - | - | - | - |
| 1777860369 | 9.44° C | 74% | 1014.8 hPa | - | - | - | - |
| 1777859468 | 10° C | 74% | 1014.8 hPa | - | - | - | - |
* Rain since midnight (hover to see other rain measurements)
** Current wind speed in m/s (hover to see current wind gust speed)